sensor_id;sensor_type;location;lat;lon;timestamp;P1;durP1;ratioP1;P2;durP2;ratioP2
84808;SDS011;75044;53.126;18.008;2024-02-26T00:00:42;36.60;;;24.00;;
84808;SDS011;75044;53.126;18.008;2024-02-26T00:02:06;34.30;;;20.30;;
84808;SDS011;75044;53.126;18.008;2024-02-26T00:03:09;32.80;;;20.00;;
84808;SDS011;75044;53.126;18.008;2024-02-26T00:04:17;38.80;;;22.60;;
84808;SDS011;75044;53.126;18.008;2024-02-26T00:05:20;30.30;;;22.50;;
84808;SDS011;75044;53.126;18.008;2024-02-26T00:06:24;30.20;;;21.20;;
84808;SDS011;75044;53.126;18.008;2024-02-26T00:07:29;32.30;;;21.20;;
84808;SDS011;75044;53.126;18.008;2024-02-26T00:08:32;28.70;;;20.50;;
84808;SDS011;75044;53.126;18.008;2024-02-26T00:10:42;32.10;;;20.30;;
84808;SDS011;75044;53.126;18.008;2024-02-26T00:11:45;35.20;;;23.10;;
84808;SDS011;75044;53.126;18.008;2024-02-26T00:12:49;34.50;;;21.80;;
84808;SDS011;75044;53.126;18.008;2024-02-26T00:13:52;37.90;;;22.40;;
84808;SDS011;75044;53.126;18.008;2024-02-26T00:14:55;37.00;;;21.80;;
84808;SDS011;75044;53.126;18.008;2024-02-26T00:16:01;35.80;;;21.90;;
84808;SDS011;75044;53.126;18.008;2024-02-26T00:17:05;34.50;;;22.10;;
84808;SDS011;75044;53.126;18.008;2024-02-26T00:18:08;36.80;;;23.60;;
84808;SDS011;75044;53.126;18.008;2024-02-26T00:19:14;33.60;;;19.50;;
84808;SDS011;75044;53.126;18.008;2024-02-26T00:20:19;34.40;;;19.30;;
84808;SDS011;75044;53.126;18.008;2024-02-26T00:21:23;36.60;;;23.40;;
84808;SDS011;75044;53.126;18.008;2024-02-26T00:22:26;33.40;;;20.40;;
84808;SDS011;75044;53.126;18.008;2024-02-26T00:23:32;38.80;;;22.40;;
84808;SDS011;75044;53.126;18.008;2024-02-26T00:24:43;39.00;;;22.50;;
84808;SDS011;75044;53.126;18.008;2024-02-26T00:25:47;29.50;;;19.70;;
84808;SDS011;75044;53.126;18.008;2024-02-26T00:26:50;31.80;;;20.80;;
84808;SDS011;75044;53.126;18.008;2024-02-26T00:27:59;29.20;;;20.20;;
84808;SDS011;75044;53.126;18.008;2024-02-26T00:29:03;29.70;;;22.10;;
84808;SDS011;75044;53.126;18.008;2024-02-26T00:31:09;32.70;;;21.20;;
84808;SDS011;75044;53.126;18.008;2024-02-26T00:32:13;34.70;;;21.10;;
84808;SDS011;75044;53.126;18.008;2024-02-26T00:33:17;33.00;;;19.20;;
84808;SDS011;75044;53.126;18.008;2024-02-26T00:34:20;28.00;;;19.80;;
84808;SDS011;75044;53.126;18.008;2024-02-26T00:35:26;32.80;;;21.10;;
84808;SDS011;75044;53.126;18.008;2024-02-26T00:37:33;27.00;;;18.80;;
84808;SDS011;75044;53.126;18.008;2024-02-26T00:38:36;31.00;;;19.40;;
84808;SDS011;75044;53.126;18.008;2024-02-26T00:39:40;26.10;;;19.50;;
84808;SDS011;75044;53.126;18.008;2024-02-26T00:40:43;27.50;;;18.90;;
84808;SDS011;75044;53.126;18.008;2024-02-26T00:41:48;26.50;;;18.50;;
84808;SDS011;75044;53.126;18.008;2024-02-26T00:42:53;28.60;;;17.50;;
84808;SDS011;75044;53.126;18.008;2024-02-26T00:43:56;33.70;;;18.90;;
84808;SDS011;75044;53.126;18.008;2024-02-26T00:45:00;28.10;;;19.00;;
84808;SDS011;75044;53.126;18.008;2024-02-26T00:46:03;28.60;;;19.40;;
84808;SDS011;75044;53.126;18.008;2024-02-26T00:47:06;30.20;;;19.60;;
84808;SDS011;75044;53.126;18.008;2024-02-26T00:48:09;29.20;;;18.40;;
84808;SDS011;75044;53.126;18.008;2024-02-26T00:50:16;28.50;;;17.20;;
84808;SDS011;75044;53.126;18.008;2024-02-26T00:51:19;28.00;;;18.50;;
84808;SDS011;75044;53.126;18.008;2024-02-26T00:52:23;30.60;;;17.60;;
84808;SDS011;75044;53.126;18.008;2024-02-26T00:53:26;28.20;;;17.30;;
84808;SDS011;75044;53.126;18.008;2024-02-26T00:54:31;29.20;;;23.30;;
84808;SDS011;75044;53.126;18.008;2024-02-26T00:56:38;32.40;;;19.20;;
84808;SDS011;75044;53.126;18.008;2024-02-26T00:57:43;33.10;;;19.50;;
84808;SDS011;75044;53.126;18.008;2024-02-26T00:58:46;27.70;;;18.90;;
84808;SDS011;75044;53.126;18.008;2024-02-26T00:59:49;29.90;;;19.70;;
84808;SDS011;75044;53.126;18.008;2024-02-26T01:00:53;26.10;;;18.90;;
84808;SDS011;75044;53.126;18.008;2024-02-26T01:01:57;32.30;;;20.30;;
84808;SDS011;75044;53.126;18.008;2024-02-26T01:03:02;37.50;;;24.40;;
84808;SDS011;75044;53.126;18.008;2024-02-26T01:04:07;33.70;;;19.30;;
84808;SDS011;75044;53.126;18.008;2024-02-26T01:05:10;33.30;;;21.60;;
84808;SDS011;75044;53.126;18.008;2024-02-26T01:06:14;32.60;;;19.90;;
84808;SDS011;75044;53.126;18.008;2024-02-26T01:07:17;33.20;;;21.80;;
84808;SDS011;75044;53.126;18.008;2024-02-26T01:08:21;30.90;;;21.10;;
84808;SDS011;75044;53.126;18.008;2024-02-26T01:09:25;33.00;;;22.50;;
84808;SDS011;75044;53.126;18.008;2024-02-26T01:11:32;35.40;;;21.40;;
84808;SDS011;75044;53.126;18.008;2024-02-26T01:13:39;30.80;;;24.00;;
84808;SDS011;75044;53.126;18.008;2024-02-26T01:14:42;33.40;;;20.30;;
84808;SDS011;75044;53.126;18.008;2024-02-26T01:15:45;37.80;;;23.50;;
84808;SDS011;75044;53.126;18.008;2024-02-26T01:16:50;36.10;;;22.40;;
84808;SDS011;75044;53.126;18.008;2024-02-26T01:17:53;36.00;;;22.50;;
84808;SDS011;75044;53.126;18.008;2024-02-26T01:18:57;35.10;;;25.10;;
84808;SDS011;75044;53.126;18.008;2024-02-26T01:20:01;36.40;;;25.00;;
84808;SDS011;75044;53.126;18.008;2024-02-26T01:21:04;42.40;;;25.50;;
84808;SDS011;75044;53.126;18.008;2024-02-26T01:22:11;29.70;;;21.10;;
84808;SDS011;75044;53.126;18.008;2024-02-26T01:23:14;38.40;;;23.20;;
84808;SDS011;75044;53.126;18.008;2024-02-26T01:24:17;35.30;;;22.10;;
84808;SDS011;75044;53.126;18.008;2024-02-26T01:25:21;35.80;;;22.50;;
84808;SDS011;75044;53.126;18.008;2024-02-26T01:26:27;34.50;;;21.50;;
84808;SDS011;75044;53.126;18.008;2024-02-26T01:27:33;32.30;;;22.50;;
84808;SDS011;75044;53.126;18.008;2024-02-26T01:28:36;33.40;;;22.50;;
84808;SDS011;75044;53.126;18.008;2024-02-26T01:29:40;37.60;;;22.80;;
84808;SDS011;75044;53.126;18.008;2024-02-26T01:30:43;36.60;;;22.00;;
84808;SDS011;75044;53.126;18.008;2024-02-26T01:31:46;32.60;;;20.70;;
84808;SDS011;75044;53.126;18.008;2024-02-26T01:32:49;33.00;;;21.00;;
84808;SDS011;75044;53.126;18.008;2024-02-26T01:33:54;35.40;;;23.40;;
84808;SDS011;75044;53.126;18.008;2024-02-26T01:34:57;36.60;;;21.90;;
84808;SDS011;75044;53.126;18.008;2024-02-26T01:36:00;35.50;;;22.40;;
84808;SDS011;75044;53.126;18.008;2024-02-26T01:37:03;32.30;;;23.50;;
84808;SDS011;75044;53.126;18.008;2024-02-26T01:38:08;39.60;;;21.70;;
84808;SDS011;75044;53.126;18.008;2024-02-26T01:39:11;37.10;;;22.30;;
84808;SDS011;75044;53.126;18.008;2024-02-26T01:40:16;34.80;;;27.60;;
84808;SDS011;75044;53.126;18.008;2024-02-26T01:41:22;35.60;;;20.70;;
84808;SDS011;75044;53.126;18.008;2024-02-26T01:42:26;36.30;;;23.50;;
84808;SDS011;75044;53.126;18.008;2024-02-26T01:44:34;37.20;;;21.80;;
84808;SDS011;75044;53.126;18.008;2024-02-26T01:45:37;36.30;;;21.80;;
84808;SDS011;75044;53.126;18.008;2024-02-26T01:46:40;34.50;;;22.50;;
84808;SDS011;75044;53.126;18.008;2024-02-26T01:47:45;34.20;;;21.50;;
84808;SDS011;75044;53.126;18.008;2024-02-26T01:48:48;33.90;;;21.40;;
84808;SDS011;75044;53.126;18.008;2024-02-26T01:49:52;34.00;;;22.50;;
84808;SDS011;75044;53.126;18.008;2024-02-26T01:50:59;30.10;;;20.00;;
84808;SDS011;75044;53.126;18.008;2024-02-26T01:52:02;29.90;;;18.40;;
84808;SDS011;75044;53.126;18.008;2024-02-26T01:53:07;30.10;;;19.80;;
84808;SDS011;75044;53.126;18.008;2024-02-26T01:54:12;31.20;;;21.20;;
84808;SDS011;75044;53.126;18.008;2024-02-26T01:56:20;35.00;;;21.10;;
84808;SDS011;75044;53.126;18.008;2024-02-26T01:57:25;28.80;;;19.00;;
84808;SDS011;75044;53.126;18.008;2024-02-26T01:58:30;34.30;;;20.50;;
84808;SDS011;75044;53.126;18.008;2024-02-26T01:59:36;36.70;;;25.80;;
84808;SDS011;75044;53.126;18.008;2024-02-26T02:00:40;32.60;;;21.00;;
84808;SDS011;75044;53.126;18.008;2024-02-26T02:01:44;33.40;;;21.10;;
84808;SDS011;75044;53.126;18.008;2024-02-26T02:02:53;33.20;;;21.60;;
84808;SDS011;75044;53.126;18.008;2024-02-26T02:03:58;35.30;;;23.80;;
84808;SDS011;75044;53.126;18.008;2024-02-26T02:05:03;41.10;;;26.00;;
84808;SDS011;75044;53.126;18.008;2024-02-26T02:06:07;33.10;;;21.90;;
84808;SDS011;75044;53.126;18.008;2024-02-26T02:07:11;34.90;;;22.50;;
84808;SDS011;75044;53.126;18.008;2024-02-26T02:08:18;33.00;;;22.40;;
84808;SDS011;75044;53.126;18.008;2024-02-26T02:09:21;31.10;;;22.10;;
84808;SDS011;75044;53.126;18.008;2024-02-26T02:10:26;37.30;;;23.60;;
84808;SDS011;75044;53.126;18.008;2024-02-26T02:11:30;39.50;;;23.50;;
84808;SDS011;75044;53.126;18.008;2024-02-26T02:12:34;37.90;;;25.80;;
84808;SDS011;75044;53.126;18.008;2024-02-26T02:13:40;37.40;;;25.40;;
84808;SDS011;75044;53.126;18.008;2024-02-26T02:14:44;38.80;;;25.70;;
84808;SDS011;75044;53.126;18.008;2024-02-26T02:15:48;42.60;;;25.60;;
84808;SDS011;75044;53.126;18.008;2024-02-26T02:16:51;37.10;;;24.90;;
84808;SDS011;75044;53.126;18.008;2024-02-26T02:17:54;43.50;;;24.40;;
84808;SDS011;75044;53.126;18.008;2024-02-26T02:18:58;46.10;;;25.40;;
84808;SDS011;75044;53.126;18.008;2024-02-26T02:20:02;37.90;;;25.10;;
84808;SDS011;75044;53.126;18.008;2024-02-26T02:21:07;41.40;;;23.60;;
84808;SDS011;75044;53.126;18.008;2024-02-26T02:22:10;39.50;;;26.50;;
84808;SDS011;75044;53.126;18.008;2024-02-26T02:23:13;38.00;;;25.90;;
84808;SDS011;75044;53.126;18.008;2024-02-26T02:24:17;35.80;;;24.70;;
84808;SDS011;75044;53.126;18.008;2024-02-26T02:26:23;40.60;;;25.20;;
84808;SDS011;75044;53.126;18.008;2024-02-26T02:27:28;39.70;;;25.10;;
84808;SDS011;75044;53.126;18.008;2024-02-26T02:28:32;38.40;;;25.20;;
84808;SDS011;75044;53.126;18.008;2024-02-26T02:29:36;33.20;;;22.90;;
84808;SDS011;75044;53.126;18.008;2024-02-26T02:30:40;35.60;;;23.80;;
84808;SDS011;75044;53.126;18.008;2024-02-26T02:31:44;39.60;;;23.40;;
84808;SDS011;75044;53.126;18.008;2024-02-26T02:32:47;34.90;;;23.90;;
84808;SDS011;75044;53.126;18.008;2024-02-26T02:33:50;35.10;;;25.40;;
84808;SDS011;75044;53.126;18.008;2024-02-26T02:34:54;39.50;;;24.70;;
84808;SDS011;75044;53.126;18.008;2024-02-26T02:36:12;39.70;;;26.60;;
84808;SDS011;75044;53.126;18.008;2024-02-26T02:37:15;43.70;;;26.00;;
84808;SDS011;75044;53.126;18.008;2024-02-26T02:39:24;35.30;;;27.00;;
84808;SDS011;75044;53.126;18.008;2024-02-26T02:40:28;38.10;;;23.50;;
84808;SDS011;75044;53.126;18.008;2024-02-26T02:42:34;36.90;;;24.80;;
84808;SDS011;75044;53.126;18.008;2024-02-26T02:43:38;39.30;;;25.50;;
84808;SDS011;75044;53.126;18.008;2024-02-26T02:44:41;33.80;;;22.10;;
84808;SDS011;75044;53.126;18.008;2024-02-26T02:45:44;38.70;;;23.40;;
84808;SDS011;75044;53.126;18.008;2024-02-26T02:46:48;56.10;;;31.60;;
84808;SDS011;75044;53.126;18.008;2024-02-26T02:47:51;38.30;;;24.40;;
84808;SDS011;75044;53.126;18.008;2024-02-26T02:48:56;40.20;;;25.50;;
84808;SDS011;75044;53.126;18.008;2024-02-26T02:49:59;39.50;;;24.10;;
84808;SDS011;75044;53.126;18.008;2024-02-26T02:51:02;39.30;;;22.90;;
84808;SDS011;75044;53.126;18.008;2024-02-26T02:52:06;38.30;;;23.80;;
84808;SDS011;75044;53.126;18.008;2024-02-26T02:53:09;32.80;;;22.00;;
84808;SDS011;75044;53.126;18.008;2024-02-26T02:54:13;31.10;;;22.90;;
84808;SDS011;75044;53.126;18.008;2024-02-26T02:55:16;34.10;;;23.30;;
84808;SDS011;75044;53.126;18.008;2024-02-26T02:56:21;37.20;;;22.80;;
84808;SDS011;75044;53.126;18.008;2024-02-26T02:57:24;37.60;;;22.00;;
84808;SDS011;75044;53.126;18.008;2024-02-26T02:58:28;35.70;;;25.00;;
84808;SDS011;75044;53.126;18.008;2024-02-26T02:59:31;32.60;;;21.90;;
84808;SDS011;75044;53.126;18.008;2024-02-26T03:00:34;33.60;;;24.10;;
84808;SDS011;75044;53.126;18.008;2024-02-26T03:01:37;39.70;;;24.00;;
84808;SDS011;75044;53.126;18.008;2024-02-26T03:03:44;38.70;;;22.40;;
84808;SDS011;75044;53.126;18.008;2024-02-26T03:04:48;41.70;;;26.00;;
84808;SDS011;75044;53.126;18.008;2024-02-26T03:05:51;37.50;;;24.30;;
84808;SDS011;75044;53.126;18.008;2024-02-26T03:06:54;38.30;;;25.90;;
84808;SDS011;75044;53.126;18.008;2024-02-26T03:08:00;40.40;;;23.00;;
84808;SDS011;75044;53.126;18.008;2024-02-26T03:09:04;34.30;;;23.30;;
84808;SDS011;75044;53.126;18.008;2024-02-26T03:10:07;38.30;;;24.10;;
84808;SDS011;75044;53.126;18.008;2024-02-26T03:12:21;38.00;;;30.20;;
84808;SDS011;75044;53.126;18.008;2024-02-26T03:13:24;39.50;;;25.40;;
84808;SDS011;75044;53.126;18.008;2024-02-26T03:14:30;39.30;;;25.80;;
84808;SDS011;75044;53.126;18.008;2024-02-26T03:15:33;39.30;;;25.40;;
84808;SDS011;75044;53.126;18.008;2024-02-26T03:16:36;38.20;;;24.70;;
84808;SDS011;75044;53.126;18.008;2024-02-26T03:17:39;44.10;;;25.90;;
84808;SDS011;75044;53.126;18.008;2024-02-26T03:18:43;38.80;;;25.30;;
84808;SDS011;75044;53.126;18.008;2024-02-26T03:19:46;41.10;;;25.60;;
84808;SDS011;75044;53.126;18.008;2024-02-26T03:20:50;39.00;;;26.80;;
84808;SDS011;75044;53.126;18.008;2024-02-26T03:22:57;39.00;;;24.30;;
84808;SDS011;75044;53.126;18.008;2024-02-26T03:24:01;41.70;;;25.90;;
84808;SDS011;75044;53.126;18.008;2024-02-26T03:25:04;43.40;;;27.30;;
84808;SDS011;75044;53.126;18.008;2024-02-26T03:26:07;39.40;;;23.50;;
84808;SDS011;75044;53.126;18.008;2024-02-26T03:27:11;40.60;;;23.40;;
84808;SDS011;75044;53.126;18.008;2024-02-26T03:28:14;42.10;;;25.40;;
84808;SDS011;75044;53.126;18.008;2024-02-26T03:29:18;38.80;;;27.10;;
84808;SDS011;75044;53.126;18.008;2024-02-26T03:30:22;39.50;;;25.90;;
84808;SDS011;75044;53.126;18.008;2024-02-26T03:31:25;39.50;;;24.60;;
84808;SDS011;75044;53.126;18.008;2024-02-26T03:32:30;40.90;;;23.70;;
84808;SDS011;75044;53.126;18.008;2024-02-26T03:33:34;43.40;;;24.00;;
84808;SDS011;75044;53.126;18.008;2024-02-26T03:34:37;41.60;;;25.80;;
84808;SDS011;75044;53.126;18.008;2024-02-26T03:35:42;36.50;;;24.10;;
84808;SDS011;75044;53.126;18.008;2024-02-26T03:36:45;40.60;;;25.20;;
84808;SDS011;75044;53.126;18.008;2024-02-26T03:37:48;43.00;;;24.40;;
84808;SDS011;75044;53.126;18.008;2024-02-26T03:38:54;36.50;;;25.20;;
84808;SDS011;75044;53.126;18.008;2024-02-26T03:39:57;39.40;;;23.60;;
84808;SDS011;75044;53.126;18.008;2024-02-26T03:41:01;42.30;;;24.80;;
84808;SDS011;75044;53.126;18.008;2024-02-26T03:43:10;45.50;;;25.80;;
84808;SDS011;75044;53.126;18.008;2024-02-26T03:45:17;33.60;;;21.50;;
84808;SDS011;75044;53.126;18.008;2024-02-26T03:46:20;35.40;;;28.00;;
84808;SDS011;75044;53.126;18.008;2024-02-26T03:47:23;33.60;;;23.20;;
84808;SDS011;75044;53.126;18.008;2024-02-26T03:48:26;35.20;;;22.20;;
84808;SDS011;75044;53.126;18.008;2024-02-26T03:49:30;37.10;;;22.90;;
84808;SDS011;75044;53.126;18.008;2024-02-26T03:50:34;35.80;;;24.00;;
84808;SDS011;75044;53.126;18.008;2024-02-26T03:51:37;34.30;;;23.70;;
84808;SDS011;75044;53.126;18.008;2024-02-26T03:52:41;36.90;;;22.10;;
84808;SDS011;75044;53.126;18.008;2024-02-26T03:53:44;32.10;;;23.20;;
84808;SDS011;75044;53.126;18.008;2024-02-26T03:54:47;37.30;;;24.00;;
84808;SDS011;75044;53.126;18.008;2024-02-26T03:55:51;36.40;;;24.00;;
84808;SDS011;75044;53.126;18.008;2024-02-26T03:56:55;31.50;;;22.20;;
84808;SDS011;75044;53.126;18.008;2024-02-26T03:58:00;37.00;;;23.10;;
84808;SDS011;75044;53.126;18.008;2024-02-26T03:59:03;37.90;;;22.60;;
84808;SDS011;75044;53.126;18.008;2024-02-26T04:00:07;36.80;;;22.60;;
84808;SDS011;75044;53.126;18.008;2024-02-26T04:01:10;33.20;;;23.90;;
84808;SDS011;75044;53.126;18.008;2024-02-26T04:02:14;35.50;;;23.40;;
84808;SDS011;75044;53.126;18.008;2024-02-26T04:04:20;34.10;;;23.00;;
84808;SDS011;75044;53.126;18.008;2024-02-26T04:05:24;26.50;;;20.30;;
84808;SDS011;75044;53.126;18.008;2024-02-26T04:06:27;29.50;;;20.10;;
84808;SDS011;75044;53.126;18.008;2024-02-26T04:07:31;34.20;;;21.30;;
84808;SDS011;75044;53.126;18.008;2024-02-26T04:08:34;31.40;;;21.70;;
84808;SDS011;75044;53.126;18.008;2024-02-26T04:09:37;32.30;;;24.90;;
84808;SDS011;75044;53.126;18.008;2024-02-26T04:10:40;27.60;;;20.30;;
84808;SDS011;75044;53.126;18.008;2024-02-26T04:11:43;30.40;;;21.10;;
84808;SDS011;75044;53.126;18.008;2024-02-26T04:12:49;31.70;;;20.00;;
84808;SDS011;75044;53.126;18.008;2024-02-26T04:13:52;28.90;;;20.10;;
84808;SDS011;75044;53.126;18.008;2024-02-26T04:15:59;36.70;;;20.80;;
84808;SDS011;75044;53.126;18.008;2024-02-26T04:17:06;31.30;;;19.70;;
84808;SDS011;75044;53.126;18.008;2024-02-26T04:18:10;28.50;;;20.40;;
84808;SDS011;75044;53.126;18.008;2024-02-26T04:19:13;36.80;;;21.60;;
84808;SDS011;75044;53.126;18.008;2024-02-26T04:20:17;28.20;;;23.40;;
84808;SDS011;75044;53.126;18.008;2024-02-26T04:21:20;28.80;;;21.00;;
84808;SDS011;75044;53.126;18.008;2024-02-26T04:22:23;27.30;;;17.70;;
84808;SDS011;75044;53.126;18.008;2024-02-26T04:23:27;28.70;;;20.30;;
84808;SDS011;75044;53.126;18.008;2024-02-26T04:24:30;24.30;;;17.40;;
84808;SDS011;75044;53.126;18.008;2024-02-26T04:25:33;30.30;;;20.80;;
84808;SDS011;75044;53.126;18.008;2024-02-26T04:26:37;32.10;;;19.80;;
84808;SDS011;75044;53.126;18.008;2024-02-26T04:27:40;27.90;;;17.90;;
84808;SDS011;75044;53.126;18.008;2024-02-26T04:28:43;31.20;;;20.60;;
84808;SDS011;75044;53.126;18.008;2024-02-26T04:29:48;32.00;;;20.70;;
84808;SDS011;75044;53.126;18.008;2024-02-26T04:30:51;25.40;;;18.90;;
84808;SDS011;75044;53.126;18.008;2024-02-26T04:32:58;24.70;;;18.60;;
84808;SDS011;75044;53.126;18.008;2024-02-26T04:34:02;28.70;;;18.20;;
84808;SDS011;75044;53.126;18.008;2024-02-26T04:35:05;26.70;;;18.90;;
84808;SDS011;75044;53.126;18.008;2024-02-26T04:36:12;28.60;;;19.10;;
84808;SDS011;75044;53.126;18.008;2024-02-26T04:37:18;25.90;;;17.60;;
84808;SDS011;75044;53.126;18.008;2024-02-26T04:38:22;22.90;;;18.80;;
84808;SDS011;75044;53.126;18.008;2024-02-26T04:39:25;25.10;;;17.30;;
84808;SDS011;75044;53.126;18.008;2024-02-26T04:40:29;25.50;;;17.90;;
84808;SDS011;75044;53.126;18.008;2024-02-26T04:41:34;28.00;;;19.30;;
84808;SDS011;75044;53.126;18.008;2024-02-26T04:42:37;26.00;;;19.30;;
84808;SDS011;75044;53.126;18.008;2024-02-26T04:43:41;28.40;;;17.50;;
84808;SDS011;75044;53.126;18.008;2024-02-26T04:45:47;29.70;;;18.10;;
84808;SDS011;75044;53.126;18.008;2024-02-26T04:46:50;25.00;;;18.30;;
84808;SDS011;75044;53.126;18.008;2024-02-26T04:47:54;26.50;;;19.30;;
84808;SDS011;75044;53.126;18.008;2024-02-26T04:50:01;27.90;;;18.40;;
84808;SDS011;75044;53.126;18.008;2024-02-26T04:51:05;26.90;;;18.40;;
84808;SDS011;75044;53.126;18.008;2024-02-26T04:52:08;27.10;;;20.40;;
84808;SDS011;75044;53.126;18.008;2024-02-26T04:54:15;26.70;;;17.60;;
84808;SDS011;75044;53.126;18.008;2024-02-26T04:55:18;27.40;;;20.00;;
84808;SDS011;75044;53.126;18.008;2024-02-26T04:56:21;29.30;;;20.10;;
84808;SDS011;75044;53.126;18.008;2024-02-26T04:58:29;25.90;;;17.40;;
84808;SDS011;75044;53.126;18.008;2024-02-26T04:59:32;26.30;;;17.70;;
84808;SDS011;75044;53.126;18.008;2024-02-26T05:00:35;23.30;;;17.40;;
84808;SDS011;75044;53.126;18.008;2024-02-26T05:01:39;27.80;;;18.90;;
84808;SDS011;75044;53.126;18.008;2024-02-26T05:02:42;31.40;;;21.60;;
84808;SDS011;75044;53.126;18.008;2024-02-26T05:03:45;25.20;;;19.20;;
84808;SDS011;75044;53.126;18.008;2024-02-26T05:04:48;31.60;;;21.00;;
84808;SDS011;75044;53.126;18.008;2024-02-26T05:05:51;25.90;;;19.60;;
84808;SDS011;75044;53.126;18.008;2024-02-26T05:06:54;26.00;;;19.20;;
84808;SDS011;75044;53.126;18.008;2024-02-26T05:07:58;28.00;;;20.50;;
84808;SDS011;75044;53.126;18.008;2024-02-26T05:09:01;29.50;;;20.20;;
84808;SDS011;75044;53.126;18.008;2024-02-26T05:10:06;27.50;;;21.10;;
84808;SDS011;75044;53.126;18.008;2024-02-26T05:11:12;27.70;;;20.10;;
84808;SDS011;75044;53.126;18.008;2024-02-26T05:12:15;27.50;;;19.30;;
84808;SDS011;75044;53.126;18.008;2024-02-26T05:13:18;29.40;;;20.50;;
84808;SDS011;75044;53.126;18.008;2024-02-26T05:14:22;23.90;;;19.40;;
84808;SDS011;75044;53.126;18.008;2024-02-26T05:15:25;27.20;;;20.60;;
84808;SDS011;75044;53.126;18.008;2024-02-26T05:16:28;26.20;;;20.40;;
84808;SDS011;75044;53.126;18.008;2024-02-26T05:17:35;28.90;;;25.70;;
84808;SDS011;75044;53.126;18.008;2024-02-26T05:18:38;27.60;;;20.20;;
84808;SDS011;75044;53.126;18.008;2024-02-26T05:19:41;25.80;;;19.80;;
84808;SDS011;75044;53.126;18.008;2024-02-26T05:20:45;28.40;;;20.90;;
84808;SDS011;75044;53.126;18.008;2024-02-26T05:21:49;25.90;;;19.20;;
84808;SDS011;75044;53.126;18.008;2024-02-26T05:22:53;28.80;;;20.80;;
84808;SDS011;75044;53.126;18.008;2024-02-26T05:23:56;30.20;;;20.20;;
84808;SDS011;75044;53.126;18.008;2024-02-26T05:26:03;28.00;;;20.30;;
84808;SDS011;75044;53.126;18.008;2024-02-26T05:27:06;28.30;;;18.90;;
84808;SDS011;75044;53.126;18.008;2024-02-26T05:28:10;29.20;;;21.40;;
84808;SDS011;75044;53.126;18.008;2024-02-26T05:29:13;32.10;;;21.50;;
84808;SDS011;75044;53.126;18.008;2024-02-26T05:30:16;23.20;;;19.10;;
84808;SDS011;75044;53.126;18.008;2024-02-26T05:31:19;30.50;;;20.80;;
84808;SDS011;75044;53.126;18.008;2024-02-26T05:33:26;28.60;;;20.50;;
84808;SDS011;75044;53.126;18.008;2024-02-26T05:34:29;30.40;;;22.60;;
84808;SDS011;75044;53.126;18.008;2024-02-26T05:35:33;30.30;;;20.80;;
84808;SDS011;75044;53.126;18.008;2024-02-26T05:36:37;29.50;;;19.50;;
84808;SDS011;75044;53.126;18.008;2024-02-26T05:37:40;22.50;;;18.00;;
84808;SDS011;75044;53.126;18.008;2024-02-26T05:38:43;29.00;;;20.50;;
84808;SDS011;75044;53.126;18.008;2024-02-26T05:39:49;25.50;;;19.60;;
84808;SDS011;75044;53.126;18.008;2024-02-26T05:40:54;28.20;;;19.30;;
84808;SDS011;75044;53.126;18.008;2024-02-26T05:41:59;28.90;;;25.30;;
84808;SDS011;75044;53.126;18.008;2024-02-26T05:43:03;26.80;;;19.40;;
84808;SDS011;75044;53.126;18.008;2024-02-26T05:44:06;27.60;;;20.60;;
84808;SDS011;75044;53.126;18.008;2024-02-26T05:45:12;29.90;;;20.10;;
84808;SDS011;75044;53.126;18.008;2024-02-26T05:46:19;29.20;;;20.40;;
84808;SDS011;75044;53.126;18.008;2024-02-26T05:47:22;27.40;;;18.70;;
84808;SDS011;75044;53.126;18.008;2024-02-26T05:48:27;28.60;;;19.30;;
84808;SDS011;75044;53.126;18.008;2024-02-26T05:49:30;26.00;;;18.60;;
84808;SDS011;75044;53.126;18.008;2024-02-26T05:50:34;27.80;;;20.80;;
84808;SDS011;75044;53.126;18.008;2024-02-26T05:51:37;23.60;;;19.00;;
84808;SDS011;75044;53.126;18.008;2024-02-26T05:52:42;27.70;;;20.40;;
84808;SDS011;75044;53.126;18.008;2024-02-26T05:53:46;25.50;;;20.10;;
84808;SDS011;75044;53.126;18.008;2024-02-26T05:54:51;26.10;;;20.80;;
84808;SDS011;75044;53.126;18.008;2024-02-26T05:55:56;24.30;;;19.50;;
84808;SDS011;75044;53.126;18.008;2024-02-26T05:57:00;28.60;;;19.50;;
84808;SDS011;75044;53.126;18.008;2024-02-26T05:58:04;29.90;;;19.40;;
84808;SDS011;75044;53.126;18.008;2024-02-26T05:59:08;32.40;;;27.20;;
84808;SDS011;75044;53.126;18.008;2024-02-26T06:00:12;31.10;;;22.10;;
84808;SDS011;75044;53.126;18.008;2024-02-26T06:01:16;32.10;;;22.90;;
84808;SDS011;75044;53.126;18.008;2024-02-26T06:02:21;41.90;;;35.30;;
84808;SDS011;75044;53.126;18.008;2024-02-26T06:03:27;39.60;;;27.40;;
84808;SDS011;75044;53.126;18.008;2024-02-26T06:05:33;42.20;;;26.10;;
84808;SDS011;75044;53.126;18.008;2024-02-26T06:06:36;44.40;;;29.60;;
84808;SDS011;75044;53.126;18.008;2024-02-26T06:07:40;44.20;;;33.20;;
84808;SDS011;75044;53.126;18.008;2024-02-26T06:09:47;41.20;;;27.30;;
84808;SDS011;75044;53.126;18.008;2024-02-26T06:10:51;40.50;;;27.20;;
84808;SDS011;75044;53.126;18.008;2024-02-26T06:11:54;36.90;;;25.70;;
84808;SDS011;75044;53.126;18.008;2024-02-26T06:12:58;38.40;;;25.40;;
84808;SDS011;75044;53.126;18.008;2024-02-26T06:14:01;37.00;;;25.10;;
84808;SDS011;75044;53.126;18.008;2024-02-26T06:15:04;36.20;;;23.50;;
84808;SDS011;75044;53.126;18.008;2024-02-26T06:17:11;30.00;;;21.80;;
84808;SDS011;75044;53.126;18.008;2024-02-26T06:19:19;26.80;;;18.40;;
84808;SDS011;75044;53.126;18.008;2024-02-26T06:20:22;30.40;;;21.70;;
84808;SDS011;75044;53.126;18.008;2024-02-26T06:21:25;29.80;;;20.00;;
84808;SDS011;75044;53.126;18.008;2024-02-26T06:22:29;31.50;;;21.40;;
84808;SDS011;75044;53.126;18.008;2024-02-26T06:23:36;28.80;;;20.70;;
84808;SDS011;75044;53.126;18.008;2024-02-26T06:24:40;28.60;;;20.90;;
84808;SDS011;75044;53.126;18.008;2024-02-26T06:25:43;27.80;;;20.90;;
84808;SDS011;75044;53.126;18.008;2024-02-26T06:27:49;30.20;;;19.50;;
84808;SDS011;75044;53.126;18.008;2024-02-26T06:28:53;27.30;;;20.10;;
84808;SDS011;75044;53.126;18.008;2024-02-26T06:29:57;26.30;;;19.80;;
84808;SDS011;75044;53.126;18.008;2024-02-26T06:31:01;26.00;;;19.80;;
84808;SDS011;75044;53.126;18.008;2024-02-26T06:32:05;29.10;;;19.50;;
84808;SDS011;75044;53.126;18.008;2024-02-26T06:33:09;26.40;;;19.20;;
84808;SDS011;75044;53.126;18.008;2024-02-26T06:34:14;25.70;;;19.00;;
84808;SDS011;75044;53.126;18.008;2024-02-26T06:35:17;27.00;;;18.10;;
84808;SDS011;75044;53.126;18.008;2024-02-26T06:36:20;24.10;;;18.80;;
84808;SDS011;75044;53.126;18.008;2024-02-26T06:37:23;26.60;;;19.90;;
84808;SDS011;75044;53.126;18.008;2024-02-26T06:38:27;22.80;;;17.60;;
84808;SDS011;75044;53.126;18.008;2024-02-26T06:39:30;22.10;;;18.10;;
84808;SDS011;75044;53.126;18.008;2024-02-26T06:40:33;23.30;;;17.60;;
84808;SDS011;75044;53.126;18.008;2024-02-26T06:41:37;22.00;;;17.70;;